sensor_id;sensor_type;location;lat;lon;timestamp;P1;durP1;ratioP1;P2;durP2;ratioP2
27728;SDS011;15126;42.186;24.340;2022-10-17T00:00:40;14.30;;;13.00;;
27728;SDS011;15126;42.186;24.340;2022-10-17T00:03:08;13.60;;;12.07;;
27728;SDS011;15126;42.186;24.340;2022-10-17T00:05:37;13.37;;;12.13;;
27728;SDS011;15126;42.186;24.340;2022-10-17T00:08:04;13.70;;;11.77;;
27728;SDS011;15126;42.186;24.340;2022-10-17T00:10:31;12.27;;;11.03;;
27728;SDS011;15126;42.186;24.340;2022-10-17T00:12:58;13.70;;;12.20;;
27728;SDS011;15126;42.186;24.340;2022-10-17T00:15:25;14.63;;;13.13;;
27728;SDS011;15126;42.186;24.340;2022-10-17T00:17:53;13.10;;;11.80;;
27728;SDS011;15126;42.186;24.340;2022-10-17T00:20:20;17.97;;;14.23;;
27728;SDS011;15126;42.186;24.340;2022-10-17T00:22:46;14.77;;;13.30;;
27728;SDS011;15126;42.186;24.340;2022-10-17T00:25:13;13.10;;;11.80;;
27728;SDS011;15126;42.186;24.340;2022-10-17T00:27:40;14.37;;;12.83;;
27728;SDS011;15126;42.186;24.340;2022-10-17T00:30:09;13.17;;;11.80;;
27728;SDS011;15126;42.186;24.340;2022-10-17T00:32:37;13.30;;;12.20;;
27728;SDS011;15126;42.186;24.340;2022-10-17T00:35:05;12.70;;;11.33;;
27728;SDS011;15126;42.186;24.340;2022-10-17T00:37:33;14.20;;;12.97;;
27728;SDS011;15126;42.186;24.340;2022-10-17T00:40:00;15.07;;;12.80;;
27728;SDS011;15126;42.186;24.340;2022-10-17T00:42:27;13.63;;;12.23;;
27728;SDS011;15126;42.186;24.340;2022-10-17T00:44:56;12.57;;;11.33;;
27728;SDS011;15126;42.186;24.340;2022-10-17T00:47:47;13.87;;;12.43;;
27728;SDS011;15126;42.186;24.340;2022-10-17T00:50:17;13.20;;;12.00;;
27728;SDS011;15126;42.186;24.340;2022-10-17T00:52:45;13.50;;;12.03;;
27728;SDS011;15126;42.186;24.340;2022-10-17T00:55:15;12.37;;;11.17;;
27728;SDS011;15126;42.186;24.340;2022-10-17T00:57:46;13.77;;;11.27;;
27728;SDS011;15126;42.186;24.340;2022-10-17T01:00:15;10.57;;;9.27;;
27728;SDS011;15126;42.186;24.340;2022-10-17T01:02:43;11.80;;;10.70;;
27728;SDS011;15126;42.186;24.340;2022-10-17T01:05:10;14.57;;;12.10;;
27728;SDS011;15126;42.186;24.340;2022-10-17T01:07:39;13.53;;;12.03;;
27728;SDS011;15126;42.186;24.340;2022-10-17T01:10:08;12.23;;;10.70;;
27728;SDS011;15126;42.186;24.340;2022-10-17T01:12:40;12.37;;;10.67;;
27728;SDS011;15126;42.186;24.340;2022-10-17T01:15:18;14.63;;;10.40;;
27728;SDS011;15126;42.186;24.340;2022-10-17T01:17:57;17.17;;;12.07;;
27728;SDS011;15126;42.186;24.340;2022-10-17T01:20:45;14.10;;;11.90;;
27728;SDS011;15126;42.186;24.340;2022-10-17T01:23:35;11.97;;;10.77;;
27728;SDS011;15126;42.186;24.340;2022-10-17T01:26:35;13.30;;;12.07;;
27728;SDS011;15126;42.186;24.340;2022-10-17T01:29:32;12.13;;;11.07;;
27728;SDS011;15126;42.186;24.340;2022-10-17T01:32:09;16.93;;;11.37;;
27728;SDS011;15126;42.186;24.340;2022-10-17T01:34:43;13.60;;;12.17;;
27728;SDS011;15126;42.186;24.340;2022-10-17T01:37:15;13.47;;;10.70;;
27728;SDS011;15126;42.186;24.340;2022-10-17T01:39:47;14.40;;;12.07;;
27728;SDS011;15126;42.186;24.340;2022-10-17T01:42:18;15.10;;;10.70;;
27728;SDS011;15126;42.186;24.340;2022-10-17T01:44:52;13.67;;;12.27;;
27728;SDS011;15126;42.186;24.340;2022-10-17T01:47:25;12.40;;;11.20;;
27728;SDS011;15126;42.186;24.340;2022-10-17T01:49:56;14.10;;;12.60;;
27728;SDS011;15126;42.186;24.340;2022-10-17T01:52:31;12.80;;;11.60;;
27728;SDS011;15126;42.186;24.340;2022-10-17T01:55:04;13.60;;;12.20;;
27728;SDS011;15126;42.186;24.340;2022-10-17T01:57:34;15.27;;;11.83;;
27728;SDS011;15126;42.186;24.340;2022-10-17T02:00:06;12.23;;;11.07;;
27728;SDS011;15126;42.186;24.340;2022-10-17T02:02:40;14.40;;;11.47;;
27728;SDS011;15126;42.186;24.340;2022-10-17T02:05:10;12.97;;;11.73;;
27728;SDS011;15126;42.186;24.340;2022-10-17T02:07:39;13.27;;;12.07;;
27728;SDS011;15126;42.186;24.340;2022-10-17T02:10:08;13.83;;;12.40;;
27728;SDS011;15126;42.186;24.340;2022-10-17T02:12:44;13.47;;;12.07;;
27728;SDS011;15126;42.186;24.340;2022-10-17T02:15:23;14.10;;;12.77;;
27728;SDS011;15126;42.186;24.340;2022-10-17T02:18:09;13.53;;;12.13;;
27728;SDS011;15126;42.186;24.340;2022-10-17T02:20:47;15.03;;;13.40;;
27728;SDS011;15126;42.186;24.340;2022-10-17T02:23:19;13.20;;;11.93;;
27728;SDS011;15126;42.186;24.340;2022-10-17T02:25:54;13.67;;;11.80;;
27728;SDS011;15126;42.186;24.340;2022-10-17T02:28:29;13.90;;;12.07;;
27728;SDS011;15126;42.186;24.340;2022-10-17T02:31:01;12.37;;;11.00;;
27728;SDS011;15126;42.186;24.340;2022-10-17T02:33:34;12.37;;;11.20;;
27728;SDS011;15126;42.186;24.340;2022-10-17T02:36:08;13.40;;;12.10;;
27728;SDS011;15126;42.186;24.340;2022-10-17T02:38:40;13.50;;;12.20;;
27728;SDS011;15126;42.186;24.340;2022-10-17T02:41:10;14.10;;;12.70;;
27728;SDS011;15126;42.186;24.340;2022-10-17T02:43:40;14.40;;;12.80;;
27728;SDS011;15126;42.186;24.340;2022-10-17T02:46:09;12.50;;;11.40;;
27728;SDS011;15126;42.186;24.340;2022-10-17T02:48:46;15.37;;;12.43;;
27728;SDS011;15126;42.186;24.340;2022-10-17T02:51:17;12.13;;;11.03;;
27728;SDS011;15126;42.186;24.340;2022-10-17T02:53:54;14.13;;;12.77;;
27728;SDS011;15126;42.186;24.340;2022-10-17T02:56:27;14.80;;;13.30;;
27728;SDS011;15126;42.186;24.340;2022-10-17T02:58:57;14.20;;;12.33;;
27728;SDS011;15126;42.186;24.340;2022-10-17T03:01:25;14.13;;;12.47;;
27728;SDS011;15126;42.186;24.340;2022-10-17T03:04:04;14.20;;;11.37;;
27728;SDS011;15126;42.186;24.340;2022-10-17T03:06:33;13.63;;;12.03;;
27728;SDS011;15126;42.186;24.340;2022-10-17T03:09:00;13.10;;;11.47;;
27728;SDS011;15126;42.186;24.340;2022-10-17T03:11:27;14.80;;;13.40;;
27728;SDS011;15126;42.186;24.340;2022-10-17T03:13:53;13.90;;;12.13;;
27728;SDS011;15126;42.186;24.340;2022-10-17T03:16:20;13.77;;;12.33;;
27728;SDS011;15126;42.186;24.340;2022-10-17T03:18:47;15.73;;;13.27;;
27728;SDS011;15126;42.186;24.340;2022-10-17T03:21:15;14.13;;;12.63;;
27728;SDS011;15126;42.186;24.340;2022-10-17T03:23:42;16.57;;;12.27;;
27728;SDS011;15126;42.186;24.340;2022-10-17T03:26:09;16.63;;;14.43;;
27728;SDS011;15126;42.186;24.340;2022-10-17T03:28:36;13.67;;;12.47;;
27728;SDS011;15126;42.186;24.340;2022-10-17T03:31:06;15.13;;;13.13;;
27728;SDS011;15126;42.186;24.340;2022-10-17T03:33:34;15.40;;;13.73;;
27728;SDS011;15126;42.186;24.340;2022-10-17T03:36:04;20.27;;;13.27;;
27728;SDS011;15126;42.186;24.340;2022-10-17T03:38:33;16.07;;;14.17;;
27728;SDS011;15126;42.186;24.340;2022-10-17T03:41:00;14.23;;;12.80;;
27728;SDS011;15126;42.186;24.340;2022-10-17T03:43:27;14.77;;;12.43;;
27728;SDS011;15126;42.186;24.340;2022-10-17T03:45:55;15.40;;;12.80;;
27728;SDS011;15126;42.186;24.340;2022-10-17T03:48:25;15.23;;;13.53;;
27728;SDS011;15126;42.186;24.340;2022-10-17T03:50:57;19.27;;;13.47;;
27728;SDS011;15126;42.186;24.340;2022-10-17T03:53:24;20.80;;;14.77;;
27728;SDS011;15126;42.186;24.340;2022-10-17T03:55:52;14.07;;;12.57;;
27728;SDS011;15126;42.186;24.340;2022-10-17T03:58:19;15.37;;;13.73;;
27728;SDS011;15126;42.186;24.340;2022-10-17T04:00:46;15.57;;;13.97;;
27728;SDS011;15126;42.186;24.340;2022-10-17T04:03:13;18.47;;;15.23;;
27728;SDS011;15126;42.186;24.340;2022-10-17T04:05:40;17.90;;;14.50;;
27728;SDS011;15126;42.186;24.340;2022-10-17T04:08:06;16.17;;;13.10;;
27728;SDS011;15126;42.186;24.340;2022-10-17T04:10:33;14.90;;;13.07;;
27728;SDS011;15126;42.186;24.340;2022-10-17T04:13:01;15.83;;;13.23;;
27728;SDS011;15126;42.186;24.340;2022-10-17T04:15:29;18.30;;;14.00;;
27728;SDS011;15126;42.186;24.340;2022-10-17T04:17:56;17.03;;;13.73;;
27728;SDS011;15126;42.186;24.340;2022-10-17T04:20:23;16.03;;;11.80;;
27728;SDS011;15126;42.186;24.340;2022-10-17T04:22:50;14.03;;;12.57;;
27728;SDS011;15126;42.186;24.340;2022-10-17T04:25:17;16.43;;;13.70;;
27728;SDS011;15126;42.186;24.340;2022-10-17T04:27:44;18.33;;;16.40;;
27728;SDS011;15126;42.186;24.340;2022-10-17T04:30:14;16.97;;;15.20;;
27728;SDS011;15126;42.186;24.340;2022-10-17T04:32:41;20.27;;;15.37;;
27728;SDS011;15126;42.186;24.340;2022-10-17T04:35:08;18.67;;;14.43;;
27728;SDS011;15126;42.186;24.340;2022-10-17T04:37:35;20.63;;;15.07;;
27728;SDS011;15126;42.186;24.340;2022-10-17T04:40:05;19.53;;;13.60;;
27728;SDS011;15126;42.186;24.340;2022-10-17T04:42:33;16.40;;;14.40;;
27728;SDS011;15126;42.186;24.340;2022-10-17T04:45:00;18.60;;;14.33;;
27728;SDS011;15126;42.186;24.340;2022-10-17T04:47:28;17.77;;;14.47;;
27728;SDS011;15126;42.186;24.340;2022-10-17T04:49:55;18.87;;;14.07;;
27728;SDS011;15126;42.186;24.340;2022-10-17T04:52:21;25.63;;;14.70;;
27728;SDS011;15126;42.186;24.340;2022-10-17T04:54:49;19.40;;;15.10;;
27728;SDS011;15126;42.186;24.340;2022-10-17T04:57:16;18.20;;;15.43;;
27728;SDS011;15126;42.186;24.340;2022-10-17T04:59:44;17.60;;;15.17;;
27728;SDS011;15126;42.186;24.340;2022-10-17T05:02:11;17.63;;;14.80;;
27728;SDS011;15126;42.186;24.340;2022-10-17T05:04:39;22.83;;;15.73;;
27728;SDS011;15126;42.186;24.340;2022-10-17T05:07:06;29.80;;;16.03;;
27728;SDS011;15126;42.186;24.340;2022-10-17T05:09:32;16.77;;;14.97;;
27728;SDS011;15126;42.186;24.340;2022-10-17T05:11:59;19.73;;;15.47;;
27728;SDS011;15126;42.186;24.340;2022-10-17T05:14:26;18.50;;;15.13;;
27728;SDS011;15126;42.186;24.340;2022-10-17T05:16:54;20.63;;;16.33;;
27728;SDS011;15126;42.186;24.340;2022-10-17T05:19:21;20.40;;;14.60;;
27728;SDS011;15126;42.186;24.340;2022-10-17T05:21:49;19.10;;;15.43;;
27728;SDS011;15126;42.186;24.340;2022-10-17T05:24:16;21.97;;;15.33;;
27728;SDS011;15126;42.186;24.340;2022-10-17T05:26:43;17.67;;;14.17;;
27728;SDS011;15126;42.186;24.340;2022-10-17T05:29:10;16.77;;;14.73;;
27728;SDS011;15126;42.186;24.340;2022-10-17T05:31:36;16.47;;;14.80;;
27728;SDS011;15126;42.186;24.340;2022-10-17T05:34:03;16.43;;;14.43;;
27728;SDS011;15126;42.186;24.340;2022-10-17T05:36:30;19.47;;;13.43;;
27728;SDS011;15126;42.186;24.340;2022-10-17T05:38:58;18.97;;;13.83;;
27728;SDS011;15126;42.186;24.340;2022-10-17T05:41:25;19.13;;;13.20;;
27728;SDS011;15126;42.186;24.340;2022-10-17T05:43:52;20.47;;;14.30;;
27728;SDS011;15126;42.186;24.340;2022-10-17T05:46:19;16.03;;;13.47;;
27728;SDS011;15126;42.186;24.340;2022-10-17T05:48:45;20.00;;;14.70;;
27728;SDS011;15126;42.186;24.340;2022-10-17T05:51:12;16.03;;;14.10;;
27728;SDS011;15126;42.186;24.340;2022-10-17T05:53:39;18.87;;;15.60;;
27728;SDS011;15126;42.186;24.340;2022-10-17T05:56:09;20.33;;;14.53;;
27728;SDS011;15126;42.186;24.340;2022-10-17T05:58:38;20.10;;;13.87;;
27728;SDS011;15126;42.186;24.340;2022-10-17T06:01:06;16.67;;;15.03;;
27728;SDS011;15126;42.186;24.340;2022-10-17T06:03:33;37.67;;;16.87;;
27728;SDS011;15126;42.186;24.340;2022-10-17T06:06:03;21.37;;;15.67;;
27728;SDS011;15126;42.186;24.340;2022-10-17T06:08:32;20.90;;;14.23;;
27728;SDS011;15126;42.186;24.340;2022-10-17T06:10:59;24.03;;;14.60;;
27728;SDS011;15126;42.186;24.340;2022-10-17T06:13:28;22.40;;;15.67;;
27728;SDS011;15126;42.186;24.340;2022-10-17T06:15:55;20.40;;;15.77;;
27728;SDS011;15126;42.186;24.340;2022-10-17T06:18:22;19.77;;;15.13;;
27728;SDS011;15126;42.186;24.340;2022-10-17T06:20:50;22.40;;;15.83;;
27728;SDS011;15126;42.186;24.340;2022-10-17T06:23:17;19.87;;;13.87;;
27728;SDS011;15126;42.186;24.340;2022-10-17T06:25:44;14.73;;;13.23;;
27728;SDS011;15126;42.186;24.340;2022-10-17T06:28:11;14.27;;;12.77;;
27728;SDS011;15126;42.186;24.340;2022-10-17T06:30:39;15.10;;;11.87;;
27728;SDS011;15126;42.186;24.340;2022-10-17T06:33:06;15.97;;;12.53;;
27728;SDS011;15126;42.186;24.340;2022-10-17T06:35:33;12.77;;;11.33;;
27728;SDS011;15126;42.186;24.340;2022-10-17T06:38:00;13.23;;;11.37;;
27728;SDS011;15126;42.186;24.340;2022-10-17T06:40:28;12.97;;;11.73;;
27728;SDS011;15126;42.186;24.340;2022-10-17T06:42:55;14.10;;;12.83;;
27728;SDS011;15126;42.186;24.340;2022-10-17T06:45:22;14.50;;;12.13;;
27728;SDS011;15126;42.186;24.340;2022-10-17T06:47:51;15.53;;;13.93;;
27728;SDS011;15126;42.186;24.340;2022-10-17T06:50:18;18.43;;;13.60;;
27728;SDS011;15126;42.186;24.340;2022-10-17T06:52:44;15.00;;;13.37;;
27728;SDS011;15126;42.186;24.340;2022-10-17T06:55:11;21.23;;;15.37;;
27728;SDS011;15126;42.186;24.340;2022-10-17T06:57:38;16.83;;;14.73;;
27728;SDS011;15126;42.186;24.340;2022-10-17T07:00:05;16.77;;;14.83;;
27728;SDS011;15126;42.186;24.340;2022-10-17T07:02:32;17.57;;;15.17;;
27728;SDS011;15126;42.186;24.340;2022-10-17T07:05:01;17.43;;;15.70;;
27728;SDS011;15126;42.186;24.340;2022-10-17T07:07:29;16.90;;;14.73;;
27728;SDS011;15126;42.186;24.340;2022-10-17T07:09:56;17.77;;;15.90;;
27728;SDS011;15126;42.186;24.340;2022-10-17T07:12:23;23.47;;;16.07;;
27728;SDS011;15126;42.186;24.340;2022-10-17T07:14:50;15.57;;;13.97;;
27728;SDS011;15126;42.186;24.340;2022-10-17T07:17:17;19.23;;;15.67;;
27728;SDS011;15126;42.186;24.340;2022-10-17T07:19:43;17.97;;;14.93;;
27728;SDS011;15126;42.186;24.340;2022-10-17T07:22:12;16.77;;;14.90;;
27728;SDS011;15126;42.186;24.340;2022-10-17T07:24:41;16.43;;;14.30;;
27728;SDS011;15126;42.186;24.340;2022-10-17T07:27:08;16.60;;;14.80;;
27728;SDS011;15126;42.186;24.340;2022-10-17T07:29:35;21.67;;;15.23;;
27728;SDS011;15126;42.186;24.340;2022-10-17T07:32:02;16.30;;;13.90;;
27728;SDS011;15126;42.186;24.340;2022-10-17T07:34:32;14.93;;;13.30;;
27728;SDS011;15126;42.186;24.340;2022-10-17T07:36:59;19.10;;;15.47;;
27728;SDS011;15126;42.186;24.340;2022-10-17T07:39:27;15.90;;;12.57;;
27728;SDS011;15126;42.186;24.340;2022-10-17T07:41:54;14.23;;;12.90;;
27728;SDS011;15126;42.186;24.340;2022-10-17T07:44:22;14.53;;;13.13;;
27728;SDS011;15126;42.186;24.340;2022-10-17T07:46:49;15.33;;;13.57;;
27728;SDS011;15126;42.186;24.340;2022-10-17T07:49:16;15.37;;;11.90;;
27728;SDS011;15126;42.186;24.340;2022-10-17T07:51:43;12.83;;;11.47;;
27728;SDS011;15126;42.186;24.340;2022-10-17T07:54:10;14.50;;;13.20;;
27728;SDS011;15126;42.186;24.340;2022-10-17T07:56:39;23.13;;;12.90;;
27728;SDS011;15126;42.186;24.340;2022-10-17T07:59:06;16.63;;;14.80;;
27728;SDS011;15126;42.186;24.340;2022-10-17T08:01:33;14.87;;;12.40;;
27728;SDS011;15126;42.186;24.340;2022-10-17T08:03:59;15.00;;;12.23;;
27728;SDS011;15126;42.186;24.340;2022-10-17T08:06:26;13.47;;;12.07;;
27728;SDS011;15126;42.186;24.340;2022-10-17T08:08:54;23.13;;;12.40;;
27728;SDS011;15126;42.186;24.340;2022-10-17T08:11:21;17.17;;;11.43;;
27728;SDS011;15126;42.186;24.340;2022-10-17T08:13:50;13.47;;;11.67;;
27728;SDS011;15126;42.186;24.340;2022-10-17T08:16:17;13.90;;;12.27;;
27728;SDS011;15126;42.186;24.340;2022-10-17T08:18:44;16.70;;;12.70;;
27728;SDS011;15126;42.186;24.340;2022-10-17T08:21:11;17.10;;;11.87;;
27728;SDS011;15126;42.186;24.340;2022-10-17T08:23:38;13.40;;;12.00;;
27728;SDS011;15126;42.186;24.340;2022-10-17T08:26:06;13.33;;;12.00;;
27728;SDS011;15126;42.186;24.340;2022-10-17T08:28:34;17.10;;;11.53;;
27728;SDS011;15126;42.186;24.340;2022-10-17T08:31:03;16.07;;;12.20;;
27728;SDS011;15126;42.186;24.340;2022-10-17T08:33:31;18.47;;;11.50;;
27728;SDS011;15126;42.186;24.340;2022-10-17T08:35:58;12.43;;;11.23;;
27728;SDS011;15126;42.186;24.340;2022-10-17T08:38:25;12.60;;;11.37;;
27728;SDS011;15126;42.186;24.340;2022-10-17T08:40:54;13.67;;;11.33;;
27728;SDS011;15126;42.186;24.340;2022-10-17T08:43:27;13.13;;;10.67;;
27728;SDS011;15126;42.186;24.340;2022-10-17T08:46:05;14.77;;;11.83;;
27728;SDS011;15126;42.186;24.340;2022-10-17T08:48:35;13.37;;;11.43;;
27728;SDS011;15126;42.186;24.340;2022-10-17T08:51:06;13.40;;;11.03;;
27728;SDS011;15126;42.186;24.340;2022-10-17T08:53:42;16.67;;;14.67;;
27728;SDS011;15126;42.186;24.340;2022-10-17T08:56:17;13.77;;;12.20;;
27728;SDS011;15126;42.186;24.340;2022-10-17T08:58:46;14.87;;;13.00;;
27728;SDS011;15126;42.186;24.340;2022-10-17T09:01:19;15.67;;;13.17;;
27728;SDS011;15126;42.186;24.340;2022-10-17T09:04:03;16.87;;;11.63;;
27728;SDS011;15126;42.186;24.340;2022-10-17T09:06:42;20.60;;;12.07;;
27728;SDS011;15126;42.186;24.340;2022-10-17T09:09:19;14.17;;;11.80;;
27728;SDS011;15126;42.186;24.340;2022-10-17T09:12:01;13.33;;;11.97;;
27728;SDS011;15126;42.186;24.340;2022-10-17T09:14:53;15.30;;;12.40;;
27728;SDS011;15126;42.186;24.340;2022-10-17T09:17:39;14.43;;;11.33;;
27728;SDS011;15126;42.186;24.340;2022-10-17T09:20:17;12.83;;;10.87;;
27728;SDS011;15126;42.186;24.340;2022-10-17T09:22:48;12.40;;;11.13;;
27728;SDS011;15126;42.186;24.340;2022-10-17T09:25:21;10.63;;;9.50;;
27728;SDS011;15126;42.186;24.340;2022-10-17T09:27:48;12.83;;;10.80;;
27728;SDS011;15126;42.186;24.340;2022-10-17T09:30:24;11.40;;;8.83;;
27728;SDS011;15126;42.186;24.340;2022-10-17T09:33:02;9.40;;;8.50;;
27728;SDS011;15126;42.186;24.340;2022-10-17T09:35:36;10.23;;;9.37;;
27728;SDS011;15126;42.186;24.340;2022-10-17T09:38:03;14.83;;;11.23;;
27728;SDS011;15126;42.186;24.340;2022-10-17T09:40:33;10.53;;;9.40;;
27728;SDS011;15126;42.186;24.340;2022-10-17T09:43:02;12.43;;;9.80;;
27728;SDS011;15126;42.186;24.340;2022-10-17T09:45:32;9.90;;;9.00;;
27728;SDS011;15126;42.186;24.340;2022-10-17T09:48:06;11.60;;;8.97;;
27728;SDS011;15126;42.186;24.340;2022-10-17T09:50:41;8.17;;;7.47;;
27728;SDS011;15126;42.186;24.340;2022-10-17T09:53:11;11.50;;;7.80;;
27728;SDS011;15126;42.186;24.340;2022-10-17T09:55:41;8.03;;;7.40;;
27728;SDS011;15126;42.186;24.340;2022-10-17T09:58:11;9.33;;;8.37;;
27728;SDS011;15126;42.186;24.340;2022-10-17T10:00:38;11.93;;;8.30;;
27728;SDS011;15126;42.186;24.340;2022-10-17T10:03:12;8.10;;;7.30;;
27728;SDS011;15126;42.186;24.340;2022-10-17T10:05:41;15.50;;;8.40;;
27728;SDS011;15126;42.186;24.340;2022-10-17T10:08:26;8.17;;;7.17;;
27728;SDS011;15126;42.186;24.340;2022-10-17T10:10:58;6.83;;;6.13;;
27728;SDS011;15126;42.186;24.340;2022-10-17T10:13:29;10.17;;;6.17;;
27728;SDS011;15126;42.186;24.340;2022-10-17T10:16:11;6.23;;;5.73;;
27728;SDS011;15126;42.186;24.340;2022-10-17T10:18:42;10.60;;;7.03;;
27728;SDS011;15126;42.186;24.340;2022-10-17T10:21:11;12.70;;;6.40;;
27728;SDS011;15126;42.186;24.340;2022-10-17T10:23:42;7.83;;;6.80;;
27728;SDS011;15126;42.186;24.340;2022-10-17T10:26:18;6.93;;;5.93;;
27728;SDS011;15126;42.186;24.340;2022-10-17T10:28:55;6.33;;;5.73;;
27728;SDS011;15126;42.186;24.340;2022-10-17T10:31:34;7.77;;;6.97;;
27728;SDS011;15126;42.186;24.340;2022-10-17T10:34:13;7.70;;;6.50;;
27728;SDS011;15126;42.186;24.340;2022-10-17T10:36:48;7.50;;;6.80;;
27728;SDS011;15126;42.186;24.340;2022-10-17T10:39:26;12.20;;;6.93;;
27728;SDS011;15126;42.186;24.340;2022-10-17T10:41:56;7.70;;;6.77;;
27728;SDS011;15126;42.186;24.340;2022-10-17T10:44:24;10.50;;;7.00;;
27728;SDS011;15126;42.186;24.340;2022-10-17T10:47:07;9.10;;;6.20;;
27728;SDS011;15126;42.186;24.340;2022-10-17T10:49:42;10.70;;;6.47;;
27728;SDS011;15126;42.186;24.340;2022-10-17T10:52:11;13.10;;;6.37;;
27728;SDS011;15126;42.186;24.340;2022-10-17T10:54:48;7.23;;;6.37;;
27728;SDS011;15126;42.186;24.340;2022-10-17T10:57:21;7.83;;;6.33;;
27728;SDS011;15126;42.186;24.340;2022-10-17T10:59:54;7.00;;;5.97;;
27728;SDS011;15126;42.186;24.340;2022-10-17T11:02:26;5.73;;;5.07;;
27728;SDS011;15126;42.186;24.340;2022-10-17T11:05:02;9.77;;;6.23;;
27728;SDS011;15126;42.186;24.340;2022-10-17T11:07:34;11.90;;;5.63;;
27728;SDS011;15126;42.186;24.340;2022-10-17T11:10:07;5.80;;;5.20;;
27728;SDS011;15126;42.186;24.340;2022-10-17T11:12:40;5.73;;;5.13;;
27728;SDS011;15126;42.186;24.340;2022-10-17T11:15:16;6.50;;;5.90;;
27728;SDS011;15126;42.186;24.340;2022-10-17T11:17:50;7.07;;;5.77;;
27728;SDS011;15126;42.186;24.340;2022-10-17T11:20:26;5.80;;;5.23;;
27728;SDS011;15126;42.186;24.340;2022-10-17T11:23:01;8.57;;;4.87;;
27728;SDS011;15126;42.186;24.340;2022-10-17T11:25:37;6.47;;;5.00;;
27728;SDS011;15126;42.186;24.340;2022-10-17T11:28:10;9.40;;;5.23;;
27728;SDS011;15126;42.186;24.340;2022-10-17T11:30:42;9.17;;;5.47;;
27728;SDS011;15126;42.186;24.340;2022-10-17T11:33:11;8.23;;;5.73;;
27728;SDS011;15126;42.186;24.340;2022-10-17T11:35:44;6.07;;;5.00;;
27728;SDS011;15126;42.186;24.340;2022-10-17T11:38:15;7.33;;;5.13;;
27728;SDS011;15126;42.186;24.340;2022-10-17T11:40:48;4.80;;;4.47;;
27728;SDS011;15126;42.186;24.340;2022-10-17T11:43:17;6.60;;;4.57;;
27728;SDS011;15126;42.186;24.340;2022-10-17T11:45:49;8.27;;;4.73;;
27728;SDS011;15126;42.186;24.340;2022-10-17T11:48:21;5.93;;;4.40;;
27728;SDS011;15126;42.186;24.340;2022-10-17T11:50:54;7.00;;;4.67;;
27728;SDS011;15126;42.186;24.340;2022-10-17T11:53:28;4.87;;;3.73;;
27728;SDS011;15126;42.186;24.340;2022-10-17T11:56:04;7.47;;;4.53;;
27728;SDS011;15126;42.186;24.340;2022-10-17T11:58:35;5.23;;;4.10;;
27728;SDS011;15126;42.186;24.340;2022-10-17T12:01:11;8.90;;;4.20;;
27728;SDS011;15126;42.186;24.340;2022-10-17T12:03:56;7.03;;;4.47;;
27728;SDS011;15126;42.186;24.340;2022-10-17T12:06:38;5.90;;;4.10;;
27728;SDS011;15126;42.186;24.340;2022-10-17T12:09:16;4.77;;;4.37;;
27728;SDS011;15126;42.186;24.340;2022-10-17T12:11:49;5.53;;;4.77;;
27728;SDS011;15126;42.186;24.340;2022-10-17T12:14:41;5.27;;;3.87;;
27728;SDS011;15126;42.186;24.340;2022-10-17T12:17:21;6.07;;;5.23;;
27728;SDS011;15126;42.186;24.340;2022-10-17T12:20:25;5.50;;;4.23;;
27728;SDS011;15126;42.186;24.340;2022-10-17T12:22:57;4.83;;;3.90;;
27728;SDS011;15126;42.186;24.340;2022-10-17T12:25:28;4.30;;;3.97;;
27728;SDS011;15126;42.186;24.340;2022-10-17T12:28:02;5.17;;;4.23;;
27728;SDS011;15126;42.186;24.340;2022-10-17T12:30:42;4.50;;;4.10;;
27728;SDS011;15126;42.186;24.340;2022-10-17T12:33:17;7.23;;;4.40;;
27728;SDS011;15126;42.186;24.340;2022-10-17T12:35:46;4.67;;;3.70;;
27728;SDS011;15126;42.186;24.340;2022-10-17T12:38:21;7.93;;;3.80;;
27728;SDS011;15126;42.186;24.340;2022-10-17T12:40:56;6.03;;;4.13;;
27728;SDS011;15126;42.186;24.340;2022-10-17T12:46:41;9.87;;;5.13;;
27728;SDS011;15126;42.186;24.340;2022-10-17T12:52:22;9.30;;;4.90;;
27728;SDS011;15126;42.186;24.340;2022-10-17T12:55:14;3.63;;;3.07;;
27728;SDS011;15126;42.186;24.340;2022-10-17T12:57:53;4.50;;;3.97;;
27728;SDS011;15126;42.186;24.340;2022-10-17T13:00:25;3.60;;;3.30;;
27728;SDS011;15126;42.186;24.340;2022-10-17T13:03:01;6.23;;;3.90;;
27728;SDS011;15126;42.186;24.340;2022-10-17T13:05:32;5.90;;;4.67;;
27728;SDS011;15126;42.186;24.340;2022-10-17T13:08:02;3.37;;;3.17;;
27728;SDS011;15126;42.186;24.340;2022-10-17T13:10:34;6.37;;;5.20;;
27728;SDS011;15126;42.186;24.340;2022-10-17T13:13:05;6.90;;;4.53;;
27728;SDS011;15126;42.186;24.340;2022-10-17T13:15:44;6.17;;;5.03;;
27728;SDS011;15126;42.186;24.340;2022-10-17T13:18:15;7.60;;;4.43;;
27728;SDS011;15126;42.186;24.340;2022-10-17T13:20:52;6.83;;;4.33;;
27728;SDS011;15126;42.186;24.340;2022-10-17T13:23:21;9.00;;;4.40;;
27728;SDS011;15126;42.186;24.340;2022-10-17T13:26:01;9.70;;;4.93;;
27728;SDS011;15126;42.186;24.340;2022-10-17T13:28:32;9.10;;;4.23;;
27728;SDS011;15126;42.186;24.340;2022-10-17T13:30:59;5.07;;;4.27;;
27728;SDS011;15126;42.186;24.340;2022-10-17T13:33:36;6.07;;;3.80;;
27728;SDS011;15126;42.186;24.340;2022-10-17T13:36:05;7.77;;;4.43;;
27728;SDS011;15126;42.186;24.340;2022-10-17T13:38:38;6.07;;;4.20;;
27728;SDS011;15126;42.186;24.340;2022-10-17T13:41:09;5.57;;;3.53;;
27728;SDS011;15126;42.186;24.340;2022-10-17T13:43:39;7.23;;;4.13;;
27728;SDS011;15126;42.186;24.340;2022-10-17T13:46:06;4.83;;;4.13;;
27728;SDS011;15126;42.186;24.340;2022-10-17T13:48:42;4.33;;;3.93;;
27728;SDS011;15126;42.186;24.340;2022-10-17T13:51:09;4.57;;;4.17;;
27728;SDS011;15126;42.186;24.340;2022-10-17T13:53:39;6.93;;;4.27;;
27728;SDS011;15126;42.186;24.340;2022-10-17T13:56:16;7.77;;;5.03;;
27728;SDS011;15126;42.186;24.340;2022-10-17T13:58:45;4.53;;;4.13;;
27728;SDS011;15126;42.186;24.340;2022-10-17T14:01:13;8.23;;;4.10;;
27728;SDS011;15126;42.186;24.340;2022-10-17T14:03:41;5.37;;;4.53;;
27728;SDS011;15126;42.186;24.340;2022-10-17T14:06:12;5.33;;;4.10;;
27728;SDS011;15126;42.186;24.340;2022-10-17T14:08:46;6.63;;;4.30;;
27728;SDS011;15126;42.186;24.340;2022-10-17T14:11:19;7.80;;;4.07;;
27728;SDS011;15126;42.186;24.340;2022-10-17T14:13:50;6.77;;;4.30;;
27728;SDS011;15126;42.186;24.340;2022-10-17T14:16:18;6.83;;;3.93;;
27728;SDS011;15126;42.186;24.340;2022-10-17T14:18:47;5.63;;;4.13;;
27728;SDS011;15126;42.186;24.340;2022-10-17T14:21:20;10.53;;;4.27;;
27728;SDS011;15126;42.186;24.340;2022-10-17T14:23:50;6.57;;;4.57;;
27728;SDS011;15126;42.186;24.340;2022-10-17T14:26:46;7.37;;;4.23;;
27728;SDS011;15126;42.186;24.340;2022-10-17T14:29:19;5.13;;;3.97;;
27728;SDS011;15126;42.186;24.340;2022-10-17T14:31:48;7.97;;;4.33;;
27728;SDS011;15126;42.186;24.340;2022-10-17T14:34:19;7.73;;;3.97;;
27728;SDS011;15126;42.186;24.340;2022-10-17T14:36:50;4.40;;;4.00;;
27728;SDS011;15126;42.186;24.340;2022-10-17T14:39:18;4.90;;;4.20;;
27728;SDS011;15126;42.186;24.340;2022-10-17T14:41:49;7.60;;;4.07;;
27728;SDS011;15126;42.186;24.340;2022-10-17T14:44:21;5.47;;;4.23;;